Snag Island, Washington
Current Conditions -  °F | °C
As of 7:58 AM on Thursday 27 Nov 2014 (Local Time) from KTCM Reporting Station
Broken Clouds Broken Clouds  
Wind Chill: 54°   Ceiling: 3300
Heat Index: 54°   Visibility: 10mi
Dew Point: 52°   Wind: 15mph
Humidity: 92%   Direction: 190°S
Pressure: 29.87"   Gusts: NA
Location:  47.1874°N, 122.164°W
Report Text: KTCM 271558Z AUTO 19013KT 10SM BKN033 12/11 A2987 RMK AO2 SLP119 T01230110 $
Loading
Personal Weather Stations






























Interactive Weather Map New forecast layout! Learn more

10-Day Weather Forecast

Advertisements
Track Severe Weather on mobile